Time;durP1;ratioP1;P1;durP2;ratioP2;P2;SDS_P1;SDS_P2;PMS_P1;PMS_P2;Temp;Humidity;BMP_temperature;BMP_pressure;BME280_temperature;BME280_humidity;BME280_pressure;Samples;Min_cycle;Max_cycle;Signal;HPM_P1;HPM_P2
2021/11/18 00:01:06;;;;;;;21.37;8.60;;;5.80;99.90;;;;;;6155752;23;20179;-80
2021/11/18 00:03:32;;;;;;;17.17;7.10;;;5.80;99.90;;;;;;6156064;23;20174;-82
2021/11/18 00:05:58;;;;;;;22.40;8.60;;;5.90;99.90;;;;;;6182517;23;21124;-81
2021/11/18 00:08:24;;;;;;;16.17;7.40;;;5.90;99.90;;;;;;6182947;23;20155;-82
2021/11/18 00:11:01;;;;;;;18.17;8.33;;;5.80;99.90;;;;;;6182468;23;20970;-79
2021/11/18 00:13:34;;;;;;;19.20;8.43;;;5.80;99.90;;;;;;6155898;23;20241;-80
2021/11/18 00:16:00;;;;;;;14.33;7.70;;;5.70;99.90;;;;;;6155754;23;20158;-80
2021/11/18 00:18:29;;;;;;;16.10;8.10;;;5.70;99.90;;;;;;6181916;23;20234;-80
2021/11/18 00:20:59;;;;;;;15.57;8.03;;;5.70;99.90;;;;;;6156391;23;20183;-79
2021/11/18 00:23:28;;;;;;;20.80;7.80;;;5.80;99.90;;;;;;6156340;23;20187;-79
2021/11/18 00:25:55;;;;;;;16.20;7.70;;;5.90;99.90;;;;;;6182231;23;20169;-80
2021/11/18 00:28:21;;;;;;;18.67;7.67;;;5.90;99.90;;;;;;6155248;23;20678;-80
2021/11/18 00:30:47;;;;;;;17.33;7.73;;;5.90;99.90;;;;;;6181917;23;20190;-79
2021/11/18 00:33:14;;;;;;;19.43;7.60;;;5.80;99.90;;;;;;6154898;23;20207;-80
2021/11/18 00:35:40;;;;;;;20.67;7.37;;;5.80;99.90;;;;;;6182238;23;20693;-80
2021/11/18 00:38:06;;;;;;;15.43;7.17;;;5.80;99.90;;;;;;6181953;23;20147;-79
2021/11/18 00:40:35;;;;;;;23.97;8.67;;;5.90;99.90;;;;;;6154679;23;20175;-81
2021/11/18 00:43:04;;;;;;;15.17;7.37;;;5.80;99.90;;;;;;6181873;23;20187;-79
2021/11/18 00:45:30;;;;;;;17.03;7.43;;;5.80;99.90;;;;;;6181741;23;20181;-80
2021/11/18 00:47:56;;;;;;;15.47;6.83;;;5.80;99.90;;;;;;6155343;23;20159;-80
2021/11/18 00:50:26;;;;;;;13.97;6.97;;;5.80;99.90;;;;;;6181302;23;20183;-79
2021/11/18 00:52:53;;;;;;;15.70;7.57;;;5.70;99.90;;;;;;6155639;23;20190;-79
2021/11/18 00:55:19;;;;;;;17.80;7.03;;;5.80;99.90;;;;;;6182662;23;20151;-80
2021/11/18 00:57:44;;;;;;;12.87;7.03;;;5.80;99.90;;;;;;6181906;23;20234;-80
2021/11/18 01:00:16;;;;;;;13.70;6.07;;;5.70;99.90;;;;;;6154873;23;20203;-77
2021/11/18 01:02:42;;;;;;;17.17;6.70;;;5.70;99.90;;;;;;6155560;23;20178;-79
2021/11/18 01:05:08;;;;;;;17.40;6.93;;;5.70;99.90;;;;;;6181722;23;20159;-79
2021/11/18 01:07:34;;;;;;;15.77;6.43;;;5.70;99.90;;;;;;6155296;23;20186;-81
2021/11/18 01:10:00;;;;;;;12.97;6.60;;;5.60;99.90;;;;;;6155351;23;20198;-80
2021/11/18 01:12:26;;;;;;;13.20;6.20;;;5.60;99.90;;;;;;6154683;23;20506;-79
2021/11/18 01:14:52;;;;;;;16.67;6.17;;;5.60;99.90;;;;;;6181156;23;20151;-81
2021/11/18 01:17:17;;;;;;;13.23;6.30;;;5.50;99.90;;;;;;6181608;23;20234;-81
2021/11/18 01:19:43;;;;;;;14.00;5.83;;;5.40;99.90;;;;;;6154884;23;20724;-81
2021/11/18 01:22:10;;;;;;;11.67;5.70;;;5.50;99.90;;;;;;6155686;23;20155;-79
2021/11/18 01:24:38;;;;;;;13.10;6.07;;;5.50;99.90;;;;;;6182160;23;20162;-81
2021/11/18 01:27:04;;;;;;;15.97;5.70;;;5.60;99.90;;;;;;6154702;23;20214;-80
2021/11/18 01:29:30;;;;;;;15.83;6.27;;;5.60;99.90;;;;;;6155260;23;20182;-79
2021/11/18 01:31:56;;;;;;;13.97;6.00;;;5.60;99.90;;;;;;6180653;23;20233;-80
2021/11/18 01:34:22;;;;;;;13.13;5.97;;;5.60;99.90;;;;;;6154829;23;20158;-78
2021/11/18 01:36:47;;;;;;;15.50;5.67;;;5.70;99.90;;;;;;6181300;23;20155;-79
2021/11/18 01:39:13;;;;;;;12.87;5.47;;;5.70;99.90;;;;;;6180813;23;20673;-80
2021/11/18 01:41:41;;;;;;;13.40;5.13;;;5.70;99.90;;;;;;6182104;23;20717;-80
2021/11/18 01:44:17;;;;;;;15.90;5.50;;;5.70;99.90;;;;;;6155651;23;20167;-80
2021/11/18 01:46:43;;;;;;;14.73;4.90;;;5.70;99.90;;;;;;6182436;23;20189;-80
2021/11/18 01:49:11;;;;;;;12.63;4.90;;;5.60;99.90;;;;;;6181370;23;20154;-79
2021/11/18 01:51:50;;;;;;;15.13;5.37;;;5.70;99.90;;;;;;6154962;23;20659;-79
2021/11/18 01:54:18;;;;;;;15.10;5.07;;;5.60;99.90;;;;;;6154421;23;20155;-79
2021/11/18 01:56:43;;;;;;;13.87;5.30;;;5.70;99.90;;;;;;6181653;23;20574;-80
2021/11/18 01:59:15;;;;;;;11.23;5.30;;;5.80;99.90;;;;;;6154106;23;20223;-78
2021/11/18 02:01:46;;;;;;;12.90;5.33;;;5.80;99.90;;;;;;6155297;23;20166;-78
2021/11/18 02:04:15;;;;;;;13.67;5.40;;;6.00;99.90;;;;;;6156079;23;20150;-80
2021/11/18 02:06:45;;;;;;;13.17;5.50;;;6.10;99.90;;;;;;6181709;23;20173;-80
2021/11/18 02:09:14;;;;;;;13.97;5.43;;;6.10;99.90;;;;;;6181318;23;20170;-78
2021/11/18 02:11:53;;;;;;;12.77;5.50;;;6.20;99.90;;;;;;6157168;23;20186;-78
2021/11/18 02:14:23;;;;;;;16.57;4.97;;;6.10;99.90;;;;;;6181904;23;20583;-79
2021/11/18 02:16:50;;;;;;;10.00;4.83;;;6.10;99.90;;;;;;6182093;23;20159;-80
2021/11/18 02:19:18;;;;;;;13.00;5.20;;;6.00;99.90;;;;;;6154641;23;20528;-79
2021/11/18 02:21:47;;;;;;;14.83;5.80;;;6.00;99.90;;;;;;6181431;23;20151;-79
2021/11/18 02:24:41;;;;;;;12.43;4.40;;;5.90;99.90;;;;;;6155015;23;20155;-79
2021/11/18 02:27:07;;;;;;;13.77;5.17;;;5.90;99.90;;;;;;6154270;23;20151;-77
2021/11/18 02:29:32;;;;;;;11.00;4.70;;;5.90;99.90;;;;;;6180877;23;20181;-79
2021/11/18 02:32:01;;;;;;;12.40;4.70;;;5.90;99.90;;;;;;6180635;23;20189;-78
2021/11/18 02:34:39;;;;;;;11.80;5.07;;;5.80;99.90;;;;;;6181367;23;20584;-80
2021/11/18 02:37:05;;;;;;;11.20;4.50;;;5.80;99.90;;;;;;6179540;23;20147;-79
2021/11/18 02:39:30;;;;;;;11.47;4.20;;;5.70;99.90;;;;;;6179234;23;20626;-76
2021/11/18 02:41:56;;;;;;;10.77;4.80;;;5.80;99.90;;;;;;6153075;23;20163;-79
2021/11/18 02:44:22;;;;;;;12.50;4.60;;;5.70;99.90;;;;;;6179164;23;20163;-79
2021/11/18 02:46:47;;;;;;;14.50;5.07;;;5.60;99.90;;;;;;6152488;23;20167;-79
2021/11/18 02:49:13;;;;;;;11.90;4.93;;;5.80;99.90;;;;;;6178858;23;20238;-78
2021/11/18 02:51:38;;;;;;;9.80;5.30;;;5.80;99.90;;;;;;6152735;23;20179;-77
2021/11/18 02:54:06;;;;;;;9.33;4.53;;;5.80;99.90;;;;;;6179413;23;20159;-78
2021/11/18 02:56:32;;;;;;;12.53;4.50;;;5.70;99.90;;;;;;6152097;23;20187;-79
2021/11/18 02:58:59;;;;;;;11.53;4.83;;;5.70;99.90;;;;;;6178437;23;20156;-79
2021/11/18 03:01:29;;;;;;;10.60;4.97;;;5.70;99.90;;;;;;6152410;23;20209;-80
2021/11/18 03:03:55;;;;;;;15.60;5.53;;;5.70;99.90;;;;;;6152598;23;20147;-80
2021/11/18 03:06:20;;;;;;;16.77;5.03;;;5.70;99.90;;;;;;6154270;23;20289;-76
2021/11/18 03:08:47;;;;;;;13.73;5.03;;;5.70;99.90;;;;;;6180619;23;20196;-81
2021/11/18 03:11:18;;;;;;;10.63;4.60;;;5.70;99.90;;;;;;6180375;23;20198;-80
2021/11/18 03:13:45;;;;;;;12.83;5.83;;;5.70;99.90;;;;;;6154300;23;20229;-77
2021/11/18 03:16:11;;;;;;;10.27;4.83;;;5.70;99.90;;;;;;6153642;23;20159;-79
2021/11/18 03:18:37;;;;;;;14.33;5.20;;;5.80;99.90;;;;;;6153358;23;20159;-79
2021/11/18 03:21:08;;;;;;;11.50;4.93;;;5.70;99.90;;;;;;6179612;23;20170;-80
2021/11/18 03:23:34;;;;;;;14.80;4.90;;;5.70;99.90;;;;;;6152846;23;20562;-80
2021/11/18 03:25:59;;;;;;;14.00;4.90;;;5.70;99.90;;;;;;6152773;23;20607;-78
2021/11/18 03:28:27;;;;;;;13.80;5.20;;;5.60;99.90;;;;;;6178880;23;20170;-81
2021/11/18 03:30:53;;;;;;;11.30;5.30;;;5.60;99.90;;;;;;6151980;23;20534;-80
2021/11/18 03:33:26;;;;;;;15.77;6.30;;;5.70;99.90;;;;;;6153663;23;20656;-79
2021/11/18 03:35:54;;;;;;;13.20;5.50;;;5.80;99.90;;;;;;6156647;23;20238;-79
2021/11/18 03:38:22;;;;;;;15.70;5.47;;;5.80;99.90;;;;;;6155805;23;20163;-80
2021/11/18 03:40:50;;;;;;;11.23;5.30;;;5.80;99.90;;;;;;6182147;23;20174;-80
2021/11/18 03:43:21;;;;;;;14.23;6.23;;;5.70;99.90;;;;;;6156208;23;20198;-78
2021/11/18 03:45:48;;;;;;;14.73;5.67;;;5.90;99.90;;;;;;6182132;23;20226;-79
2021/11/18 03:48:16;;;;;;;15.90;5.73;;;5.90;99.90;;;;;;6155741;23;20159;-79
2021/11/18 03:50:43;;;;;;;16.20;6.43;;;5.90;99.90;;;;;;6155480;23;20199;-79
2021/11/18 03:53:10;;;;;;;16.07;5.77;;;5.90;99.90;;;;;;6182140;23;20165;-80
2021/11/18 03:55:35;;;;;;;12.90;5.83;;;5.90;99.90;;;;;;6182245;23;20225;-81
2021/11/18 03:58:01;;;;;;;11.93;5.60;;;5.90;99.90;;;;;;6155114;23;20155;-79
2021/11/18 04:00:30;;;;;;;11.37;5.37;;;5.90;99.90;;;;;;6156024;23;20183;-81
2021/11/18 04:02:58;;;;;;;14.87;6.00;;;5.80;99.90;;;;;;6155565;23;20163;-78
2021/11/18 04:05:24;;;;;;;13.47;6.23;;;5.90;99.90;;;;;;6182195;23;20162;-77
2021/11/18 04:07:50;;;;;;;19.67;6.87;;;5.90;99.90;;;;;;6181324;23;20151;-81
2021/11/18 04:10:20;;;;;;;14.17;6.47;;;5.90;99.90;;;;;;6181096;23;20194;-82
2021/11/18 04:12:46;;;;;;;15.90;6.33;;;5.90;99.90;;;;;;6154931;23;20226;-78
2021/11/18 04:15:13;;;;;;;16.97;6.53;;;5.90;99.90;;;;;;6154929;23;20246;-79
2021/11/18 04:17:39;;;;;;;12.57;5.47;;;6.00;99.90;;;;;;6155738;23;20159;-82
2021/11/18 04:20:07;;;;;;;15.40;6.83;;;5.90;99.90;;;;;;6155193;23;20581;-80
2021/11/18 04:22:33;;;;;;;12.80;5.93;;;6.00;99.90;;;;;;6181702;23;20734;-82
2021/11/18 04:24:59;;;;;;;14.13;6.00;;;6.00;99.90;;;;;;6154824;23;20161;-81
2021/11/18 04:27:25;;;;;;;18.43;7.30;;;6.10;99.90;;;;;;6154715;23;20210;-81
2021/11/18 04:29:50;;;;;;;16.47;6.33;;;6.10;99.90;;;;;;6181621;23;20201;-79
2021/11/18 04:32:21;;;;;;;15.53;6.07;;;6.20;99.90;;;;;;6182723;23;20158;-79
2021/11/18 04:34:47;;;;;;;13.10;5.93;;;6.20;99.90;;;;;;6182725;23;20143;-77
2021/11/18 04:37:13;;;;;;;16.80;7.20;;;6.20;99.90;;;;;;6155746;23;20158;-81
2021/11/18 04:39:40;;;;;;;15.47;6.70;;;6.30;99.90;;;;;;6182715;23;20166;-78
2021/11/18 04:42:07;;;;;;;16.43;6.57;;;6.30;99.90;;;;;;6155379;23;20167;-80
2021/11/18 04:44:35;;;;;;;18.23;7.80;;;6.40;99.90;;;;;;6182080;23;20154;-79
2021/11/18 04:47:02;;;;;;;13.57;7.77;;;6.50;99.90;;;;;;6182242;23;20206;-80
2021/11/18 04:49:28;;;;;;;12.70;6.00;;;6.50;99.90;;;;;;6155212;23;20243;-79
2021/11/18 04:51:53;;;;;;;10.97;6.80;;;6.50;99.90;;;;;;6181703;23;20226;-80
2021/11/18 04:54:19;;;;;;;17.57;7.40;;;6.50;99.90;;;;;;6156193;23;20158;-79
2021/11/18 04:56:44;;;;;;;14.83;7.37;;;6.60;99.90;;;;;;6155599;23;20159;-82
2021/11/18 04:59:10;;;;;;;15.57;7.87;;;6.70;99.90;;;;;;6155490;23;20206;-80
2021/11/18 05:01:36;;;;;;;18.17;7.17;;;6.60;99.90;;;;;;6155152;23;20195;-79
2021/11/18 05:04:04;;;;;;;14.20;6.47;;;6.70;99.90;;;;;;6155879;23;20163;-80
2021/11/18 05:06:29;;;;;;;14.57;7.23;;;6.70;99.90;;;;;;6155280;23;20190;-79
2021/11/18 05:08:55;;;;;;;15.43;7.83;;;6.60;99.90;;;;;;6154203;23;20171;-79
2021/11/18 05:11:21;;;;;;;15.50;7.73;;;6.70;99.90;;;;;;6154240;23;20246;-79
2021/11/18 05:13:47;;;;;;;17.10;7.70;;;6.80;99.90;;;;;;6154850;23;20561;-80
2021/11/18 05:16:15;;;;;;;13.33;8.27;;;6.70;99.90;;;;;;6154713;23;20611;-77
2021/11/18 05:18:41;;;;;;;15.77;7.80;;;6.70;99.90;;;;;;6154326;23;20211;-77
2021/11/18 05:21:08;;;;;;;21.40;8.07;;;6.80;99.90;;;;;;6154497;23;20187;-78
2021/11/18 05:23:35;;;;;;;18.73;9.17;;;6.80;99.90;;;;;;6154841;23;20766;-80
2021/11/18 05:26:02;;;;;;;15.97;8.17;;;6.90;99.90;;;;;;6180898;23;20502;-78
2021/11/18 05:28:28;;;;;;;17.77;8.30;;;6.90;99.90;;;;;;6179762;23;20242;-79
2021/11/18 05:30:54;;;;;;;19.27;7.67;;;6.90;99.90;;;;;;6154049;23;20627;-82
2021/11/18 05:33:22;;;;;;;18.40;7.77;;;7.00;99.90;;;;;;6154209;23;20162;-79
2021/11/18 05:35:48;;;;;;;18.70;7.90;;;6.90;99.90;;;;;;6181131;23;20167;-78
2021/11/18 05:38:14;;;;;;;21.20;8.27;;;7.00;99.90;;;;;;6154110;23;20557;-78
2021/11/18 05:40:42;;;;;;;20.33;8.50;;;6.90;99.90;;;;;;6154122;23;20245;-80
2021/11/18 05:43:08;;;;;;;21.13;9.07;;;6.90;99.90;;;;;;6154421;23;20170;-78
2021/11/18 05:45:35;;;;;;;17.23;8.43;;;6.90;99.90;;;;;;6153914;23;20166;-78
2021/11/18 05:48:02;;;;;;;17.57;8.53;;;6.90;99.90;;;;;;6152775;23;20614;-78
2021/11/18 05:50:28;;;;;;;18.17;8.67;;;6.90;99.90;;;;;;6152905;23;20269;-77
2021/11/18 05:52:54;;;;;;;20.23;9.53;;;7.00;99.90;;;;;;6154243;23;20166;-78
2021/11/18 05:55:27;;;;;;;19.70;8.60;;;7.00;99.90;;;;;;6154058;23;20163;-77
2021/11/18 05:57:53;;;;;;;18.83;9.30;;;7.00;99.90;;;;;;6180479;23;20144;-79
2021/11/18 06:00:24;;;;;;;19.17;10.33;;;7.00;99.90;;;;;;6152527;23;20187;-79
2021/11/18 06:02:50;;;;;;;17.90;9.17;;;7.10;99.90;;;;;;6178402;23;20197;-79
2021/11/18 06:05:16;;;;;;;20.13;9.37;;;7.10;99.90;;;;;;6179167;23;20166;-81
2021/11/18 06:07:43;;;;;;;20.60;8.70;;;7.20;99.90;;;;;;6178234;23;20152;-81
2021/11/18 06:10:12;;;;;;;17.37;8.90;;;7.20;99.90;;;;;;6152184;23;20227;-79
2021/11/18 06:12:38;;;;;;;16.13;8.37;;;7.20;99.90;;;;;;6152427;23;20546;-81
2021/11/18 06:15:04;;;;;;;16.73;8.80;;;7.30;99.90;;;;;;6152694;23;20161;-77
2021/11/18 06:17:30;;;;;;;18.53;9.20;;;7.20;99.90;;;;;;6152438;23;20614;-79
2021/11/18 06:19:56;;;;;;;16.97;8.77;;;7.30;99.90;;;;;;6152523;23;20186;-78
2021/11/18 06:22:27;;;;;;;18.13;9.33;;;7.30;99.90;;;;;;6152994;23;20177;-81
2021/11/18 06:24:55;;;;;;;19.23;9.20;;;7.30;99.90;;;;;;6152943;23;20148;-78
2021/11/18 06:27:22;;;;;;;19.30;9.30;;;7.30;99.90;;;;;;6178887;23;20154;-80
2021/11/18 06:29:48;;;;;;;18.33;9.30;;;7.40;99.90;;;;;;6152529;23;20182;-78
2021/11/18 06:32:15;;;;;;;20.97;9.23;;;7.40;99.90;;;;;;6152646;23;20706;-78
2021/11/18 06:34:42;;;;;;;20.53;11.20;;;7.40;99.90;;;;;;6179092;23;20171;-78
2021/11/18 06:37:09;;;;;;;21.17;9.00;;;7.50;99.90;;;;;;6152753;23;20159;-78
2021/11/18 06:39:37;;;;;;;17.47;8.87;;;7.50;99.90;;;;;;6151421;23;20174;-80
2021/11/18 06:42:08;;;;;;;18.13;9.33;;;7.50;99.90;;;;;;6178763;23;20245;-81
2021/11/18 06:44:34;;;;;;;16.80;8.93;;;7.50;99.90;;;;;;6153006;23;20163;-80
2021/11/18 06:47:00;;;;;;;16.73;9.83;;;7.50;99.90;;;;;;6153570;23;20170;-79
2021/11/18 06:49:26;;;;;;;15.97;9.23;;;7.40;99.90;;;;;;6153715;23;20186;-77
2021/11/18 06:51:52;;;;;;;19.90;9.70;;;7.50;99.90;;;;;;6152848;23;20187;-80
2021/11/18 06:54:19;;;;;;;18.37;9.60;;;7.40;99.90;;;;;;6153835;23;20641;-78
2021/11/18 06:56:46;;;;;;;18.10;8.53;;;7.40;99.90;;;;;;6180288;23;20175;-79
2021/11/18 06:59:12;;;;;;;21.23;10.20;;;7.40;99.90;;;;;;6153544;23;20162;-78
2021/11/18 07:01:39;;;;;;;20.63;9.50;;;7.30;99.90;;;;;;6153320;23;20615;-79
2021/11/18 07:04:08;;;;;;;13.67;8.77;;;7.40;99.90;;;;;;6153455;23;20163;-80
2021/11/18 07:06:36;;;;;;;17.70;8.83;;;7.40;99.90;;;;;;6153667;23;20327;-77
2021/11/18 07:09:04;;;;;;;14.80;8.87;;;7.50;99.90;;;;;;6152702;23;20167;-79
2021/11/18 07:11:30;;;;;;;19.67;9.23;;;7.50;99.90;;;;;;6176046;23;20166;-78
2021/11/18 07:13:55;;;;;;;18.37;9.00;;;7.40;99.90;;;;;;6152252;23;20234;-81
2021/11/18 07:16:22;;;;;;;20.70;9.87;;;7.40;99.90;;;;;;6178494;23;20159;-80
2021/11/18 07:18:49;;;;;;;19.83;10.30;;;7.40;99.90;;;;;;6178560;23;20618;-80
2021/11/18 07:21:18;;;;;;;17.40;9.97;;;7.40;99.90;;;;;;6152042;23;20182;-80
2021/11/18 07:23:44;;;;;;;16.10;9.77;;;7.40;99.90;;;;;;6153166;23;20221;-78
2021/11/18 07:26:11;;;;;;;20.27;10.07;;;7.40;99.90;;;;;;6181419;23;20159;-78
2021/11/18 07:28:37;;;;;;;17.63;9.33;;;7.40;99.90;;;;;;6179552;23;20166;-78
2021/11/18 07:31:03;;;;;;;17.60;9.30;;;7.40;99.90;;;;;;6154648;23;20709;-79
2021/11/18 07:33:30;;;;;;;16.87;9.33;;;7.40;99.90;;;;;;6181562;23;20150;-77
2021/11/18 07:35:56;;;;;;;17.03;9.60;;;7.50;99.90;;;;;;6154832;23;20236;-80
2021/11/18 07:38:23;;;;;;;17.63;10.47;;;7.50;99.90;;;;;;6180414;23;20585;-78
2021/11/18 07:40:49;;;;;;;15.70;9.70;;;7.50;99.90;;;;;;6180601;23;20229;-78
2021/11/18 07:43:22;;;;;;;16.50;9.43;;;7.50;99.90;;;;;;6180884;23;20143;-81
2021/11/18 07:45:49;;;;;;;16.57;9.23;;;7.60;99.90;;;;;;6179683;23;20147;-77
2021/11/18 07:48:15;;;;;;;22.43;8.73;;;7.60;99.90;;;;;;6153701;23;20170;-80
2021/11/18 07:50:42;;;;;;;17.43;9.23;;;7.60;99.90;;;;;;6180364;23;20557;-80
2021/11/18 07:53:09;;;;;;;15.80;8.80;;;7.70;99.90;;;;;;6154205;23;20270;-77
2021/11/18 07:55:34;;;;;;;21.80;10.27;;;7.80;99.90;;;;;;6154273;23;20163;-77
2021/11/18 07:58:00;;;;;;;19.17;9.17;;;7.80;99.90;;;;;;6180964;23;20159;-78
2021/11/18 08:00:27;;;;;;;20.23;10.17;;;7.80;99.90;;;;;;6154863;23;20563;-77
2021/11/18 08:02:53;;;;;;;16.27;8.87;;;7.80;99.90;;;;;;6180891;23;20170;-77
2021/11/18 08:05:20;;;;;;;17.33;9.37;;;7.80;99.90;;;;;;6180651;23;20182;-78
2021/11/18 08:07:46;;;;;;;15.00;8.23;;;7.90;99.90;;;;;;6154270;23;20610;-78
2021/11/18 08:10:13;;;;;;;16.23;8.70;;;7.90;99.90;;;;;;6179133;23;20273;-77
2021/11/18 08:12:40;;;;;;;14.27;8.37;;;8.00;99.90;;;;;;6179407;23;20154;-77
2021/11/18 08:15:11;;;;;;;14.27;8.50;;;8.00;99.90;;;;;;6153538;23;20189;-79
2021/11/18 08:17:37;;;;;;;17.13;8.97;;;8.10;99.90;;;;;;6179572;23;20147;-80
2021/11/18 08:20:05;;;;;;;15.73;8.00;;;8.10;99.90;;;;;;6179633;23;20177;-79
2021/11/18 08:22:31;;;;;;;14.70;7.97;;;8.20;99.90;;;;;;6153133;23;20264;-78
2021/11/18 08:24:56;;;;;;;17.93;7.77;;;8.20;99.90;;;;;;6153820;23;20592;-79
2021/11/18 08:27:22;;;;;;;12.10;7.60;;;8.20;99.90;;;;;;6179274;23;20251;-79
2021/11/18 08:29:47;;;;;;;12.17;7.17;;;8.30;99.90;;;;;;6180100;23;20179;-79
2021/11/18 08:32:14;;;;;;;16.13;7.97;;;8.30;99.90;;;;;;6152957;23;20242;-78
2021/11/18 08:34:40;;;;;;;13.60;7.83;;;8.30;99.90;;;;;;6154070;23;20183;-79
2021/11/18 08:37:06;;;;;;;13.57;7.30;;;8.40;99.90;;;;;;6180049;23;20159;-79
2021/11/18 08:39:33;;;;;;;15.73;7.37;;;8.40;99.90;;;;;;6152447;23;20237;-81
2021/11/18 08:42:02;;;;;;;12.53;7.30;;;8.60;99.90;;;;;;6152440;23;20237;-77
2021/11/18 08:44:30;;;;;;;15.83;6.97;;;8.70;99.90;;;;;;6153031;23;20167;-77
2021/11/18 08:46:56;;;;;;;17.97;7.60;;;8.70;99.90;;;;;;6175889;23;20159;-82
2021/11/18 08:49:23;;;;;;;14.60;7.30;;;8.70;99.90;;;;;;6175274;23;20198;-81
2021/11/18 08:51:51;;;;;;;13.33;6.13;;;8.70;99.90;;;;;;6176980;23;20221;-79
2021/11/18 08:54:23;;;;;;;15.37;7.57;;;8.80;99.90;;;;;;6150876;23;20221;-79
2021/11/18 08:56:51;;;;;;;14.57;6.77;;;8.70;99.90;;;;;;6176312;23;20139;-79
2021/11/18 08:59:18;;;;;;;13.43;6.03;;;8.80;99.90;;;;;;6177676;23;20198;-80
2021/11/18 09:01:49;;;;;;;10.73;6.73;;;8.80;99.90;;;;;;6177719;23;20159;-80
2021/11/18 09:04:19;;;;;;;10.10;6.37;;;8.80;99.90;;;;;;6154267;23;20158;-79
2021/11/18 09:06:46;;;;;;;10.10;6.20;;;8.80;99.90;;;;;;6179615;23;20151;-78
2021/11/18 09:09:14;;;;;;;14.00;6.57;;;8.80;99.90;;;;;;6177236;23;20170;-79
2021/11/18 09:11:42;;;;;;;12.87;7.27;;;8.80;99.90;;;;;;6152577;23;20210;-79
2021/11/18 09:14:10;;;;;;;13.37;6.63;;;8.90;99.90;;;;;;6152220;23;20173;-78
2021/11/18 09:16:37;;;;;;;15.70;7.13;;;8.90;99.90;;;;;;6150208;23;20163;-79
2021/11/18 09:19:06;;;;;;;15.90;7.00;;;9.00;99.90;;;;;;6151015;23;20159;-79
2021/11/18 09:21:33;;;;;;;13.70;6.53;;;9.10;99.90;;;;;;6148601;23;20615;-79
2021/11/18 09:24:03;;;;;;;13.17;6.87;;;9.20;99.90;;;;;;6149487;23;20274;-79
2021/11/18 09:26:32;;;;;;;11.00;5.70;;;9.30;99.90;;;;;;6149532;23;20166;-79
2021/11/18 09:28:59;;;;;;;11.60;5.87;;;9.30;99.90;;;;;;6149102;23;20167;-79
2021/11/18 09:31:26;;;;;;;15.70;6.10;;;9.50;99.90;;;;;;6175954;23;20179;-79
2021/11/18 09:33:52;;;;;;;13.00;5.53;;;9.60;99.90;;;;;;6149991;23;20183;-79
2021/11/18 09:36:19;;;;;;;11.53;5.93;;;9.60;99.90;;;;;;6150371;23;20167;-80
2021/11/18 09:38:47;;;;;;;12.00;6.47;;;9.50;99.90;;;;;;6175951;23;20159;-77
2021/11/18 09:41:27;;;;;;;14.07;7.10;;;9.60;99.90;;;;;;6149137;23;20187;-78
2021/11/18 09:43:56;;;;;;;12.90;6.27;;;9.70;99.90;;;;;;6175981;23;20154;-81
2021/11/18 09:46:40;;;;;;;10.67;5.63;;;9.90;99.90;;;;;;6175706;23;20164;-78
2021/11/18 09:49:24;;;;;;;13.20;6.97;;;9.90;99.90;;;;;;6189016;23;20159;-78
2021/11/18 09:52:27;;;;;;;12.20;6.10;;;9.90;99.90;;;;;;6173244;23;20197;-79
2021/11/18 09:55:22;;;;;;;13.40;6.07;;;9.80;99.90;;;;;;6178294;23;20165;-77
2021/11/18 09:58:17;;;;;;;10.90;5.50;;;9.70;99.90;;;;;;6151210;23;20631;-80
2021/11/18 10:00:45;;;;;;;15.50;5.93;;;9.80;99.90;;;;;;6151576;23;20232;-79
2021/11/18 10:03:48;;;;;;;13.27;5.23;;;9.70;99.90;;;;;;6177969;23;20186;-79
2021/11/18 10:06:16;;;;;;;9.20;5.50;;;9.70;99.90;;;;;;6151012;23;20174;-79
2021/11/18 10:08:58;;;;;;;10.87;5.30;;;9.70;99.90;;;;;;6149357;23;20159;-82
2021/11/18 10:11:55;;;;;;;15.03;5.50;;;9.60;99.90;;;;;;6177615;23;20171;-81
2021/11/18 10:14:42;;;;;;;13.53;5.83;;;9.60;99.90;;;;;;6152164;23;20185;-81
2021/11/18 10:17:11;;;;;;;11.70;5.43;;;9.60;99.90;;;;;;6180104;23;20147;-78
2021/11/18 10:19:42;;;;;;;10.53;5.23;;;9.60;99.90;;;;;;6152966;23;20273;-81
2021/11/18 10:22:10;;;;;;;14.80;6.73;;;9.70;99.90;;;;;;6180818;23;20143;-77
2021/11/18 10:24:38;;;;;;;12.33;6.53;;;9.80;99.90;;;;;;6153320;23;20173;-81
2021/11/18 10:27:12;;;;;;;11.17;4.97;;;9.80;99.90;;;;;;6179622;23;20154;-80
2021/11/18 10:29:53;;;;;;;11.70;5.73;;;9.70;99.90;;;;;;6152254;23;20221;-79
2021/11/18 10:32:22;;;;;;;11.50;5.67;;;9.60;99.90;;;;;;6181159;23;20206;-78
2021/11/18 10:34:52;;;;;;;13.20;6.13;;;9.60;99.90;;;;;;6158533;23;20159;-81
2021/11/18 10:37:31;;;;;;;12.47;5.20;;;9.70;99.90;;;;;;6158628;23;20154;-80
2021/11/18 10:40:07;;;;;;;11.80;5.20;;;9.80;99.90;;;;;;6184459;23;20167;-79
2021/11/18 10:42:43;;;;;;;12.93;4.60;;;9.90;99.90;;;;;;6182486;23;20162;-80
2021/11/18 10:45:11;;;;;;;10.90;5.13;;;9.90;99.90;;;;;;6153753;23;20219;-78
2021/11/18 10:47:58;;;;;;;12.23;5.57;;;9.90;99.90;;;;;;6179184;23;20155;-80
2021/11/18 10:50:43;;;;;;;14.87;5.67;;;10.00;99.90;;;;;;6151534;23;20246;-79
2021/11/18 10:53:23;;;;;;;14.13;5.90;;;10.00;99.90;;;;;;6177315;23;20162;-80
2021/11/18 10:56:13;;;;;;;13.97;5.60;;;10.00;99.90;;;;;;6153407;23;20147;-80
2021/11/18 10:58:59;;;;;;;11.70;5.00;;;10.10;99.90;;;;;;6157758;23;20166;-78
2021/11/18 11:01:25;;;;;;;10.57;4.43;;;10.00;99.90;;;;;;6156819;23;20151;-79
2021/11/18 11:03:52;;;;;;;13.47;5.17;;;10.10;99.90;;;;;;6183938;23;20165;-80
2021/11/18 11:06:24;;;;;;;13.87;5.00;;;10.10;99.90;;;;;;6157527;23;20190;-80
2021/11/18 11:08:55;;;;;;;13.83;5.10;;;10.00;99.90;;;;;;6182931;23;20143;-80
2021/11/18 11:11:27;;;;;;;14.13;4.80;;;10.10;99.90;;;;;;6181340;23;20183;-81
2021/11/18 11:14:23;;;;;;;11.47;5.33;;;10.20;99.90;;;;;;6154551;23;20162;-81
2021/11/18 11:17:07;;;;;;;8.27;4.53;;;10.20;99.90;;;;;;6181221;23;20147;-80
2021/11/18 11:19:42;;;;;;;12.03;4.90;;;10.20;99.90;;;;;;6181199;23;20443;-80
2021/11/18 11:22:34;;;;;;;10.07;4.70;;;10.20;99.90;;;;;;6181987;23;20695;-78
2021/11/18 11:25:06;;;;;;;11.03;4.60;;;10.20;99.90;;;;;;6180184;23;20144;-80
2021/11/18 11:28:07;;;;;;;12.30;4.90;;;10.20;99.90;;;;;;6181436;23;20155;-78
2021/11/18 11:30:32;;;;;;;12.90;4.77;;;10.20;99.90;;;;;;6098998;23;20207;-79
2021/11/18 11:33:29;;;;;;;12.07;4.90;;;10.30;99.90;;;;;;6153865;23;20221;-79
2021/11/18 11:36:01;;;;;;;11.07;4.93;;;10.40;99.90;;;;;;6182016;23;20762;-78
2021/11/18 11:39:07;;;;;;;10.67;4.77;;;10.50;99.90;;;;;;6154625;23;20173;-78
2021/11/18 11:42:18;;;;;;;15.63;4.53;;;10.70;99.90;;;;;;6160677;23;20167;-81
2021/11/18 11:45:04;;;;;;;9.87;4.73;;;10.70;99.90;;;;;;6181385;23;20143;-80
2021/11/18 11:47:48;;;;;;;11.20;5.63;;;10.60;99.90;;;;;;6180187;23;20189;-79
2021/11/18 11:50:25;;;;;;;9.03;4.83;;;10.40;99.90;;;;;;6154368;23;20639;-80
2021/11/18 11:53:13;;;;;;;9.93;4.30;;;10.30;99.90;;;;;;6180609;23;20193;-78
2021/11/18 11:55:57;;;;;;;11.60;5.13;;;10.20;99.90;;;;;;6153296;23;20215;-79
2021/11/18 11:58:37;;;;;;;14.27;5.00;;;10.20;99.90;;;;;;6153528;23;20198;-80
2021/11/18 12:01:20;;;;;;;12.73;5.33;;;10.10;99.90;;;;;;6179904;23;20557;-80
2021/11/18 12:04:11;;;;;;;11.27;5.60;;;10.10;99.90;;;;;;6153537;23;20155;-78
2021/11/18 12:06:39;;;;;;;12.03;5.07;;;10.10;99.90;;;;;;6153465;23;20151;-78
2021/11/18 12:09:34;;;;;;;12.17;4.83;;;10.10;99.90;;;;;;6152299;23;20182;-80
2021/11/18 12:12:31;;;;;;;13.87;5.30;;;10.10;99.90;;;;;;6122564;23;20666;-78
2021/11/18 12:14:58;;;;;;;13.70;4.93;;;10.00;99.90;;;;;;6153189;23;20163;-79
2021/11/18 12:17:27;;;;;;;9.67;5.13;;;10.10;99.90;;;;;;6152340;23;20190;-79
2021/11/18 12:20:24;;;;;;;10.80;5.47;;;10.10;99.90;;;;;;6178165;23;20178;-79
2021/11/18 12:22:57;;;;;;;12.83;5.03;;;10.10;99.90;;;;;;6177987;23;20432;-79
2021/11/18 12:25:41;;;;;;;11.37;4.67;;;10.00;99.90;;;;;;6152866;23;20155;-78
2021/11/18 12:28:13;;;;;;;9.77;4.43;;;10.00;99.90;;;;;;6151161;23;20147;-78
2021/11/18 12:31:02;;;;;;;10.50;4.60;;;9.90;99.90;;;;;;6151887;23;20217;-80
2021/11/18 12:33:27;;;;;;;8.37;4.77;;;9.80;99.90;;;;;;6179266;23;20534;-78
2021/11/18 12:35:56;;;;;;;14.07;5.70;;;9.80;99.90;;;;;;6152700;23;20155;-80
2021/11/18 12:38:40;;;;;;;10.03;4.47;;;9.80;99.90;;;;;;6178718;23;20151;-80
2021/11/18 12:41:33;;;;;;;10.03;4.47;;;9.70;99.90;;;;;;6179017;23;20179;-78
2021/11/18 12:44:14;;;;;;;10.47;4.53;;;9.80;99.90;;;;;;6179298;23;20226;-77
2021/11/18 12:47:12;;;;;;;12.53;4.57;;;9.80;99.90;;;;;;6178432;23;20363;-78
2021/11/18 12:49:38;;;;;;;9.03;4.57;;;9.80;99.90;;;;;;6179026;23;20222;-78
2021/11/18 12:52:09;;;;;;;12.20;4.57;;;9.90;99.90;;;;;;6152151;23;20182;-78
2021/11/18 12:55:12;;;;;;;10.80;4.50;;;9.90;99.90;;;;;;6177708;23;20155;-78
2021/11/18 12:57:42;;;;;;;7.83;4.30;;;9.90;99.90;;;;;;6151527;23;20186;-79
2021/11/18 13:00:13;;;;;;;9.23;3.80;;;9.90;99.90;;;;;;6178313;23;20197;-78
2021/11/18 13:02:41;;;;;;;10.43;4.00;;;10.00;99.90;;;;;;6177457;23;20162;-79